Terminal Aerodrome Forecast
Issued by NWS Midland/Odessa, TX

Home | Current Version | Previous Version | Text Only | Print | Product List | Glossary On
Versions: 1 2 3 4 5 6 7 8 9 10 11 12 13 14 15 16 17 18 19
000
FTUS44 KMAF 301700
TAFMAF
TAF
KMAF 301728Z 3018/3118 20009G17KT P6SM SCT060
     FM302200 24010KT P6SM SCT100 SCT250
      TEMPO 3023/3101 VRB25G40KT 5SM TSRA BKN050CB
     FM310100 04015G24KT P6SM BKN100=

USA.gov is the U.S. government's official web portal to all federal, state and local government web resources and services.